createdAt,value
2023-05-12T00:00:35.534Z,24.73
2023-05-12T00:01:35.238Z,24.69
2023-05-12T00:02:35.364Z,24.70
2023-05-12T00:03:35.558Z,24.70
2023-05-12T00:04:35.381Z,24.69
2023-05-12T00:05:36.082Z,24.70
2023-05-12T00:06:35.420Z,24.70
2023-05-12T00:07:35.491Z,24.70
2023-05-12T00:08:35.508Z,24.69
2023-05-12T00:09:35.545Z,24.70
2023-05-12T00:10:35.634Z,24.69
2023-05-12T00:11:35.671Z,24.70
2023-05-12T00:12:35.660Z,24.69
2023-05-12T00:13:35.734Z,24.69
2023-05-12T00:14:35.765Z,24.70
2023-05-12T00:15:36.043Z,24.67
2023-05-12T00:16:35.920Z,24.69
2023-05-12T00:17:35.908Z,24.64
2023-05-12T00:18:36.553Z,24.66
2023-05-12T00:19:35.957Z,24.66
2023-05-12T00:20:36.027Z,24.69
2023-05-12T00:21:36.033Z,24.63
2023-05-12T00:22:36.113Z,24.67
2023-05-12T00:23:36.132Z,24.64
2023-05-12T00:24:36.196Z,24.66
2023-05-12T00:25:36.263Z,24.66
2023-05-12T00:26:36.272Z,24.64
2023-05-12T00:27:36.338Z,24.62
2023-05-12T00:28:36.390Z,24.66
2023-05-12T00:29:36.403Z,24.66
2023-05-12T00:30:36.459Z,24.62
2023-05-12T00:31:36.602Z,24.66
2023-05-12T00:32:36.565Z,24.63
2023-05-12T00:33:36.574Z,24.63
2023-05-12T00:34:36.616Z,24.63
2023-05-12T00:35:37.080Z,24.63
2023-05-12T00:36:36.662Z,24.63
2023-05-12T00:37:36.750Z,24.62
2023-05-12T00:38:36.782Z,24.62
2023-05-12T00:39:36.840Z,24.60
2023-05-12T00:40:37.127Z,24.63
2023-05-12T00:41:36.898Z,24.59
2023-05-12T00:42:36.994Z,24.64
2023-05-12T00:43:37.025Z,24.60
2023-05-12T00:44:37.044Z,24.60
2023-05-12T00:45:37.600Z,24.60
2023-05-12T00:46:37.205Z,24.60
2023-05-12T00:47:37.238Z,24.60
2023-05-12T00:48:37.206Z,24.59
2023-05-12T00:49:37.255Z,24.58
2023-05-12T00:50:37.312Z,24.60
2023-05-12T00:51:37.347Z,24.60
2023-05-12T00:52:37.374Z,24.59
2023-05-12T00:53:48.400Z,24.59
2023-05-12T00:54:38.391Z,24.60
2023-05-12T00:55:37.560Z,24.60
2023-05-12T00:56:37.398Z,24.59
2023-05-12T00:57:37.392Z,24.60
2023-05-12T00:58:37.392Z,24.58
2023-05-12T00:59:37.364Z,24.59
2023-05-12T01:00:37.391Z,24.59
2023-05-12T01:01:37.397Z,24.55
2023-05-12T01:02:37.486Z,24.56
2023-05-12T01:03:37.414Z,24.59
2023-05-12T01:04:37.351Z,24.58
2023-05-12T01:05:37.421Z,24.56
2023-05-12T01:06:37.347Z,24.58
2023-05-12T01:07:37.398Z,24.58
2023-05-12T01:08:37.433Z,24.55
2023-05-12T01:09:37.533Z,24.55
2023-05-12T01:10:37.553Z,24.56
2023-05-12T01:11:37.561Z,24.55
2023-05-12T01:12:37.635Z,24.56
2023-05-12T01:13:37.685Z,24.55
2023-05-12T01:14:37.711Z,24.55
2023-05-12T01:15:38.050Z,24.53
2023-05-12T01:16:37.818Z,24.55
2023-05-12T01:17:38.047Z,24.55
2023-05-12T01:18:37.926Z,24.53
2023-05-12T01:19:37.966Z,24.55
2023-05-12T01:20:38.053Z,24.53
2023-05-12T01:21:38.039Z,24.55
2023-05-12T01:22:38.123Z,24.53
2023-05-12T01:23:38.160Z,24.53
2023-05-12T01:24:38.185Z,24.53
2023-05-12T01:25:38.285Z,24.53
2023-05-12T01:26:38.543Z,24.55
2023-05-12T01:27:38.409Z,24.52
2023-05-12T01:28:38.384Z,24.50
2023-05-12T01:29:38.435Z,24.50
2023-05-12T01:30:38.518Z,24.52
2023-05-12T01:31:38.578Z,24.49
2023-05-12T01:32:38.579Z,24.50
2023-05-12T01:33:38.654Z,24.50
2023-05-12T01:34:38.703Z,24.49
2023-05-12T01:35:38.820Z,24.52
2023-05-12T01:36:38.796Z,24.50
2023-05-12T01:37:38.842Z,24.49
2023-05-12T01:38:38.871Z,24.49
2023-05-12T01:39:38.939Z,24.49
2023-05-12T01:40:38.996Z,24.49
2023-05-12T01:41:39.046Z,24.50
2023-05-12T01:42:39.112Z,24.50
2023-05-12T01:43:39.153Z,24.49
2023-05-12T01:44:40.077Z,24.48
2023-05-12T01:45:39.259Z,24.49
2023-05-12T01:46:39.382Z,24.48
2023-05-12T01:47:39.440Z,24.49
2023-05-12T01:48:39.422Z,24.48
2023-05-12T01:49:39.496Z,24.46
2023-05-12T01:50:39.586Z,24.46
2023-05-12T01:51:39.609Z,24.46
2023-05-12T01:52:39.686Z,24.48
2023-05-12T01:53:39.686Z,24.48
2023-05-12T01:54:39.752Z,24.46
2023-05-12T01:55:39.812Z,24.46
2023-05-12T01:56:39.859Z,24.46
2023-05-12T01:57:39.873Z,24.43
2023-05-12T01:58:39.993Z,24.43
2023-05-12T01:59:39.989Z,24.43
2023-05-12T02:00:40.072Z,24.43
2023-05-12T02:01:40.249Z,24.46
2023-05-12T02:02:42.134Z,24.44
2023-05-12T02:03:40.334Z,24.44
2023-05-12T02:04:40.209Z,24.43
2023-05-12T02:05:40.193Z,24.43
2023-05-12T02:06:40.201Z,24.43
2023-05-12T02:07:40.137Z,24.42
2023-05-12T02:08:40.125Z,24.43
2023-05-12T02:09:40.103Z,24.42
2023-05-12T02:10:40.135Z,24.43
2023-05-12T02:11:40.121Z,24.42
2023-05-12T02:12:40.095Z,24.42
2023-05-12T02:13:40.085Z,24.42
2023-05-12T02:14:40.134Z,24.42
2023-05-12T02:15:40.076Z,24.42
2023-05-12T02:16:40.144Z,24.40
2023-05-12T02:17:40.121Z,24.40
2023-05-12T02:18:40.229Z,24.42
2023-05-12T02:19:40.077Z,24.42
2023-05-12T02:20:40.066Z,24.42
2023-05-12T02:21:40.042Z,24.40
2023-05-12T02:22:40.046Z,24.42
2023-05-12T02:23:40.050Z,24.40
2023-05-12T02:24:40.012Z,24.38
2023-05-12T02:25:40.038Z,24.39
2023-05-12T02:26:40.121Z,24.39
2023-05-12T02:27:40.048Z,24.39
2023-05-12T02:28:40.013Z,24.38
2023-05-12T02:29:39.983Z,24.39
2023-05-12T02:30:39.971Z,24.40
2023-05-12T02:31:40.086Z,24.39
2023-05-12T02:32:40.019Z,24.40
2023-05-12T02:33:39.921Z,24.38
2023-05-12T02:34:39.967Z,24.39
2023-05-12T02:35:39.958Z,24.38
2023-05-12T02:36:39.962Z,24.38
2023-05-12T02:37:39.917Z,24.38
2023-05-12T02:38:40.038Z,24.39
2023-05-12T02:39:39.936Z,24.38
2023-05-12T02:40:39.916Z,24.39
2023-05-12T02:41:40.109Z,24.36
2023-05-12T02:42:39.900Z,24.39
2023-05-12T02:43:39.917Z,24.38
2023-05-12T02:44:39.938Z,24.38
2023-05-12T02:45:40.038Z,24.35
2023-05-12T02:46:40.098Z,24.35
2023-05-12T02:47:40.192Z,24.36
2023-05-12T02:48:40.221Z,24.36
2023-05-12T02:49:40.217Z,24.35
2023-05-12T02:50:40.270Z,24.36
2023-05-12T02:51:40.600Z,24.33
2023-05-12T02:52:40.389Z,24.35
2023-05-12T02:53:40.454Z,24.36
2023-05-12T02:54:40.530Z,24.36
2023-05-12T02:55:40.561Z,24.33
2023-05-12T02:56:40.651Z,24.33
2023-05-12T02:57:40.704Z,24.32
2023-05-12T02:58:40.753Z,24.35
2023-05-12T02:59:40.808Z,24.35
2023-05-12T03:00:40.807Z,24.35
2023-05-12T03:01:41.155Z,24.32
2023-05-12T03:02:41.018Z,24.35
2023-05-12T03:03:41.124Z,24.32
2023-05-12T03:04:41.044Z,24.31
2023-05-12T03:05:41.134Z,24.33
2023-05-12T03:06:41.617Z,24.35
2023-05-12T03:07:41.200Z,24.32
2023-05-12T03:08:41.445Z,24.32
2023-05-12T03:09:41.357Z,24.32
2023-05-12T03:10:41.383Z,24.32
2023-05-12T03:11:42.083Z,24.32
2023-05-12T03:12:41.512Z,24.32
2023-05-12T03:13:41.591Z,24.32
2023-05-12T03:14:41.631Z,24.31
2023-05-12T03:15:41.733Z,24.31
2023-05-12T03:16:42.175Z,24.32
2023-05-12T03:17:41.847Z,24.31
2023-05-12T03:18:41.904Z,24.32
2023-05-12T03:19:41.893Z,24.31
2023-05-12T03:20:41.956Z,24.31
2023-05-12T03:21:42.100Z,24.31
2023-05-12T03:22:42.054Z,24.29
2023-05-12T03:23:42.149Z,24.31
2023-05-12T03:24:42.174Z,24.29
2023-05-12T03:25:42.268Z,24.29
2023-05-12T03:26:43.076Z,24.29
2023-05-12T03:27:42.363Z,24.29
2023-05-12T03:28:42.426Z,24.29
2023-05-12T03:29:42.555Z,24.29
2023-05-12T03:30:42.529Z,24.31
2023-05-12T03:31:43.158Z,24.28
2023-05-12T03:32:42.779Z,24.29
2023-05-12T03:33:42.721Z,24.29
2023-05-12T03:34:42.798Z,24.26
2023-05-12T03:35:42.835Z,24.28
2023-05-12T03:36:42.901Z,24.26
2023-05-12T03:37:42.967Z,24.29
2023-05-12T03:38:43.028Z,24.29
2023-05-12T03:39:43.098Z,24.28
2023-05-12T03:40:43.174Z,24.28
2023-05-12T03:41:43.215Z,24.28
2023-05-12T03:42:43.243Z,24.28
2023-05-12T03:43:43.330Z,24.28
2023-05-12T03:44:43.369Z,24.28
2023-05-12T03:45:43.452Z,24.25
2023-05-12T03:46:43.696Z,24.28
2023-05-12T03:47:43.599Z,24.25
2023-05-12T03:48:43.595Z,24.26
2023-05-12T03:49:43.677Z,24.25
2023-05-12T03:50:43.764Z,24.25
2023-05-12T03:51:44.102Z,24.28
2023-05-12T03:52:43.897Z,24.23
2023-05-12T03:53:43.937Z,24.25
2023-05-12T03:54:44.026Z,24.23
2023-05-12T03:55:44.080Z,24.26
2023-05-12T03:56:44.151Z,24.26
2023-05-12T03:57:44.212Z,24.25
2023-05-12T03:58:44.261Z,24.25
2023-05-12T03:59:44.338Z,24.23
2023-05-12T04:00:44.374Z,24.25
2023-05-12T04:01:44.450Z,24.23
2023-05-12T04:02:44.577Z,24.25
2023-05-12T04:03:44.589Z,24.23
2023-05-12T04:04:44.613Z,24.22
2023-05-12T04:05:44.678Z,24.25
2023-05-12T04:06:44.713Z,24.22
2023-05-12T04:07:44.787Z,24.22
2023-05-12T04:08:44.832Z,24.23
2023-05-12T04:09:44.919Z,24.22
2023-05-12T04:10:44.962Z,24.22
2023-05-12T04:11:45.035Z,24.22
2023-05-12T04:12:45.103Z,24.22
2023-05-12T04:13:45.145Z,24.21
2023-05-12T04:14:45.206Z,24.23
2023-05-12T04:15:45.257Z,24.21
2023-05-12T04:16:45.387Z,24.22
2023-05-12T04:17:45.405Z,24.23
2023-05-12T04:18:45.503Z,24.21
2023-05-12T04:19:45.546Z,24.21
2023-05-12T04:20:45.597Z,24.21
2023-05-12T04:21:46.162Z,24.22
2023-05-12T04:22:45.712Z,24.25
2023-05-12T04:23:45.735Z,24.21
2023-05-12T04:24:45.838Z,24.21
2023-05-12T04:25:45.851Z,24.23
2023-05-12T04:26:46.174Z,24.22
2023-05-12T04:27:45.975Z,24.19
2023-05-12T04:28:46.055Z,24.21
2023-05-12T04:29:46.208Z,24.19
2023-05-12T04:30:46.171Z,24.21
2023-05-12T04:31:46.714Z,24.19
2023-05-12T04:32:46.299Z,24.19
2023-05-12T04:33:48.227Z,24.19
2023-05-12T04:34:46.403Z,24.16
2023-05-12T04:35:46.472Z,24.22
2023-05-12T04:36:46.612Z,24.19
2023-05-12T04:37:46.602Z,24.22
2023-05-12T04:38:46.635Z,24.19
2023-05-12T04:39:46.655Z,24.18
2023-05-12T04:40:46.724Z,24.19
2023-05-12T04:41:47.132Z,24.18
2023-05-12T04:42:46.836Z,24.21
2023-05-12T04:44:46.910Z,24.18
2023-05-12T04:45:46.948Z,24.18
2023-05-12T04:46:47.127Z,24.18
2023-05-12T04:47:46.981Z,24.18
2023-05-12T04:48:46.863Z,24.16
2023-05-12T04:49:46.875Z,24.16
2023-05-12T04:50:46.860Z,24.18
2023-05-12T04:51:46.875Z,24.18
2023-05-12T04:52:46.869Z,24.16
2023-05-12T04:53:46.846Z,24.11
2023-05-12T04:54:46.839Z,24.09
2023-05-12T04:55:46.840Z,24.07
2023-05-12T04:56:47.159Z,24.08
2023-05-12T04:57:46.822Z,24.07
2023-05-12T04:58:46.806Z,23.99
2023-05-12T04:59:46.824Z,23.99
2023-05-12T05:00:46.825Z,24.01
2023-05-12T05:01:47.055Z,23.99
2023-05-12T05:02:46.870Z,23.95
2023-05-12T05:03:46.874Z,23.98
2023-05-12T05:04:46.773Z,24.02
2023-05-12T05:05:46.784Z,24.01
2023-05-12T05:06:46.760Z,23.98
2023-05-12T05:07:47.147Z,24.02
2023-05-12T05:08:46.734Z,24.02
2023-05-12T05:09:46.747Z,23.99
2023-05-12T05:10:46.720Z,23.94
2023-05-12T05:11:47.132Z,23.98
2023-05-12T05:12:46.721Z,23.97
2023-05-12T05:13:46.712Z,23.99
2023-05-12T05:14:46.719Z,24.04
2023-05-12T05:15:46.722Z,24.02
2023-05-12T05:16:46.704Z,23.99
2023-05-12T05:17:46.717Z,23.94
2023-05-12T05:18:46.931Z,23.97
2023-05-12T05:19:55.954Z,24.01
2023-05-12T05:20:56.011Z,24.04
2023-05-12T05:21:47.638Z,24.05
2023-05-12T05:22:47.132Z,24.05
2023-05-12T05:23:46.675Z,24.05
2023-05-12T05:24:46.648Z,24.02
2023-05-12T05:25:46.609Z,24.01
2023-05-12T05:26:46.627Z,24.04
2023-05-12T05:27:46.616Z,24.02
2023-05-12T05:28:46.607Z,24.02
2023-05-12T05:29:46.616Z,24.01
2023-05-12T05:30:46.596Z,23.99
2023-05-12T05:31:46.694Z,23.99
2023-05-12T05:32:46.622Z,24.01
2023-05-12T05:33:46.564Z,23.99
2023-05-12T05:34:46.578Z,24.01
2023-05-12T05:35:46.598Z,23.98
2023-05-12T05:36:46.555Z,23.98
2023-05-12T05:37:46.534Z,23.97
2023-05-12T05:38:46.559Z,23.98
2023-05-12T05:39:46.536Z,23.98
2023-05-12T05:40:53.546Z,23.98
2023-05-12T05:41:47.554Z,24.01
2023-05-12T05:42:46.630Z,24.04
2023-05-12T05:43:46.529Z,24.01
2023-05-12T05:44:46.570Z,24.02
2023-05-12T05:45:46.485Z,24.05
2023-05-12T05:46:46.546Z,24.02
2023-05-12T05:47:46.699Z,24.04
2023-05-12T05:48:46.528Z,24.02
2023-05-12T05:49:46.468Z,24.01
2023-05-12T05:50:46.529Z,23.89
2023-05-12T05:51:46.556Z,23.92
2023-05-12T05:52:46.609Z,24.01
2023-05-12T05:53:46.635Z,24.05
2023-05-12T05:54:46.735Z,23.99
2023-05-12T05:55:46.770Z,24.07
2023-05-12T05:56:46.777Z,24.02
2023-05-12T05:57:47.141Z,24.07
2023-05-12T05:58:46.875Z,24.08
2023-05-12T05:59:46.921Z,24.11
2023-05-12T06:00:47.010Z,24.04
2023-05-12T06:01:47.072Z,24.08
2023-05-12T06:02:47.311Z,24.02
2023-05-12T06:03:47.227Z,24.01
2023-05-12T06:04:47.226Z,23.91
2023-05-12T06:05:47.215Z,23.91
2023-05-12T06:06:48.183Z,23.89
2023-05-12T06:07:47.289Z,23.94
2023-05-12T06:08:47.322Z,23.94
2023-05-12T06:09:47.421Z,23.98
2023-05-12T06:10:47.440Z,24.01
2023-05-12T06:11:47.485Z,24.02
2023-05-12T06:12:48.457Z,24.04
2023-05-12T06:13:47.564Z,24.07
2023-05-12T06:14:47.414Z,24.09
2023-05-12T06:15:47.452Z,24.08
2023-05-12T06:16:47.473Z,24.11
2023-05-12T06:17:47.690Z,24.09
2023-05-12T06:18:47.445Z,24.13
2023-05-12T06:19:47.420Z,24.18
2023-05-12T06:20:47.454Z,24.19
2023-05-12T06:21:47.468Z,24.21
2023-05-12T06:22:47.697Z,24.25
2023-05-12T06:23:47.633Z,24.25
2023-05-12T06:24:47.698Z,24.28
2023-05-12T06:25:47.699Z,24.29
2023-05-12T06:26:47.806Z,24.31
2023-05-12T06:27:47.872Z,24.35
2023-05-12T06:28:47.891Z,24.35
2023-05-12T06:29:48.064Z,24.35
2023-05-12T06:30:48.015Z,24.35
2023-05-12T06:31:48.067Z,24.35
2023-05-12T06:32:48.151Z,24.39
2023-05-12T06:33:48.141Z,24.39
2023-05-12T06:34:48.223Z,24.40
2023-05-12T06:35:48.257Z,24.44
2023-05-12T06:36:48.314Z,24.43
2023-05-12T06:37:48.674Z,24.42
2023-05-12T06:38:48.442Z,24.44
2023-05-12T06:39:48.435Z,24.46
2023-05-12T06:40:48.518Z,24.48
2023-05-12T06:41:48.532Z,24.46
2023-05-12T06:42:48.590Z,24.48
2023-05-12T06:43:48.654Z,24.49
2023-05-12T06:44:48.658Z,24.50
2023-05-12T06:45:48.712Z,24.49
2023-05-12T06:46:48.794Z,24.49
2023-05-12T06:47:48.805Z,24.53
2023-05-12T06:48:48.856Z,24.55
2023-05-12T06:49:48.879Z,24.55
2023-05-12T06:50:48.927Z,24.56
2023-05-12T06:51:48.980Z,24.58
2023-05-12T06:52:49.207Z,24.56
2023-05-12T06:53:49.023Z,24.46
2023-05-12T06:54:49.098Z,24.35
2023-05-12T06:55:49.141Z,24.23
2023-05-12T06:56:49.220Z,24.09
2023-05-12T06:57:49.663Z,24.18
2023-05-12T06:58:49.337Z,24.21
2023-05-12T06:59:49.382Z,24.25
2023-05-12T07:00:49.459Z,24.25
2023-05-12T07:01:49.538Z,24.32
2023-05-12T07:02:49.760Z,24.36
2023-05-12T07:03:49.700Z,24.38
2023-05-12T07:04:49.693Z,24.36
2023-05-12T07:05:49.689Z,24.40
2023-05-12T07:06:49.747Z,24.43
2023-05-12T07:07:49.810Z,24.43
2023-05-12T07:08:49.835Z,24.46
2023-05-12T07:09:49.926Z,24.46
2023-05-12T07:10:49.924Z,24.48
2023-05-12T07:11:49.965Z,24.48
2023-05-12T07:12:50.188Z,24.50
2023-05-12T07:13:50.007Z,24.53
2023-05-12T07:14:50.098Z,24.52
2023-05-12T07:15:50.683Z,24.52
2023-05-12T07:16:50.171Z,24.53
2023-05-12T07:17:50.308Z,24.55
2023-05-12T07:18:50.320Z,24.56
2023-05-12T07:19:50.296Z,24.58
2023-05-12T07:20:50.349Z,24.59
2023-05-12T07:21:50.318Z,24.59
2023-05-12T07:22:50.418Z,24.62
2023-05-12T07:23:50.427Z,24.63
2023-05-12T07:24:50.526Z,24.62
2023-05-12T07:25:50.508Z,24.63
2023-05-12T07:26:50.541Z,24.63
2023-05-12T07:27:50.564Z,24.64
2023-05-12T07:28:50.605Z,24.67
2023-05-12T07:29:50.621Z,24.70
2023-05-12T07:30:50.662Z,24.69
2023-05-12T07:31:50.687Z,24.70
2023-05-12T07:32:50.765Z,24.70
2023-05-12T07:33:50.726Z,24.74
2023-05-12T07:34:50.740Z,24.73
2023-05-12T07:35:50.782Z,24.74
2023-05-12T07:36:50.782Z,24.73
2023-05-12T07:37:51.235Z,24.76
2023-05-12T07:38:50.873Z,24.76
2023-05-12T07:39:50.876Z,24.76
2023-05-12T07:40:50.937Z,24.79
2023-05-12T07:41:50.891Z,24.79
2023-05-12T07:42:51.005Z,24.79
2023-05-12T07:43:50.971Z,24.81
2023-05-12T07:44:50.976Z,24.80
2023-05-12T07:45:50.985Z,24.74
2023-05-12T07:46:51.020Z,24.80
2023-05-12T07:47:51.067Z,24.73
2023-05-12T07:48:51.057Z,24.73
2023-05-12T07:49:51.070Z,24.80
2023-05-12T07:50:51.091Z,24.80
2023-05-12T07:51:51.115Z,24.81
2023-05-12T07:52:51.145Z,24.79
2023-05-12T07:53:51.198Z,24.77
2023-05-12T07:54:51.171Z,24.74
2023-05-12T07:55:51.181Z,24.73
2023-05-12T07:56:51.492Z,24.74
2023-05-12T07:57:51.377Z,24.72
2023-05-12T07:58:52.197Z,24.70
2023-05-12T07:59:51.350Z,24.67
2023-05-12T08:00:51.346Z,24.64
2023-05-12T08:01:51.397Z,24.66
2023-05-12T08:02:51.986Z,24.63
2023-05-12T08:03:51.660Z,24.62
2023-05-12T08:04:51.471Z,24.60
2023-05-12T08:05:51.518Z,24.55
2023-05-12T08:06:51.577Z,24.56
2023-05-12T08:07:51.662Z,24.58
2023-05-12T08:08:51.676Z,24.55
2023-05-12T08:09:51.700Z,24.53
2023-05-12T08:10:51.745Z,24.52
2023-05-12T08:11:51.997Z,24.49
2023-05-12T08:12:52.711Z,24.48
2023-05-12T08:13:51.909Z,24.48
2023-05-12T08:14:51.952Z,24.46
2023-05-12T08:15:51.981Z,24.43
2023-05-12T08:16:52.043Z,24.46
2023-05-12T08:17:52.111Z,24.42
2023-05-12T08:18:52.261Z,24.39
2023-05-12T08:19:52.193Z,24.39
2023-05-12T08:20:52.225Z,24.39
2023-05-12T08:21:52.288Z,24.39
2023-05-12T08:22:52.332Z,24.36
2023-05-12T08:23:52.721Z,24.38
2023-05-12T08:24:52.491Z,24.32
2023-05-12T08:25:52.562Z,24.35
2023-05-12T08:26:52.713Z,24.33
2023-05-12T08:27:52.667Z,24.33
2023-05-12T08:28:53.247Z,24.33
2023-05-12T08:29:52.780Z,24.31
2023-05-12T08:30:52.856Z,24.28
2023-05-12T08:31:52.875Z,24.28
2023-05-12T08:32:52.970Z,24.26
2023-05-12T08:34:09.205Z,24.28
2023-05-12T08:34:53.997Z,24.26
2023-05-12T08:35:53.009Z,24.25
2023-05-12T08:36:53.019Z,24.25
2023-05-12T08:37:52.994Z,24.26
2023-05-12T08:38:52.983Z,24.25
2023-05-12T08:39:52.998Z,24.26
2023-05-12T08:40:52.952Z,24.25
2023-05-12T08:41:52.978Z,24.23
2023-05-12T08:42:53.018Z,24.23
2023-05-12T08:43:53.077Z,24.23
2023-05-12T08:44:53.207Z,24.23
2023-05-12T08:45:53.159Z,24.19
2023-05-12T08:46:53.385Z,24.21
2023-05-12T08:47:53.335Z,24.21
2023-05-12T08:48:53.387Z,24.19
2023-05-12T08:49:53.414Z,24.16
2023-05-12T08:50:53.463Z,24.16
2023-05-12T08:51:57.662Z,24.16
2023-05-12T08:52:53.506Z,24.19
2023-05-12T08:53:53.521Z,24.18
2023-05-12T08:54:56.469Z,24.16
2023-05-12T08:57:09.056Z,24.15
2023-05-12T08:57:53.529Z,24.16
2023-05-12T08:58:53.435Z,24.13
2023-05-12T08:59:53.449Z,24.15
2023-05-12T09:00:53.762Z,24.15
2023-05-12T09:01:53.520Z,24.13
2023-05-12T09:02:54.794Z,24.13
2023-05-12T09:03:53.438Z,24.12
2023-05-12T09:04:53.568Z,24.11
2023-05-12T09:05:53.427Z,24.09
2023-05-12T09:06:55.771Z,24.11
2023-05-12T09:07:53.632Z,24.09
2023-05-12T09:08:53.708Z,24.11
2023-05-12T09:09:53.720Z,24.08
2023-05-12T09:10:53.838Z,24.09
2023-05-12T09:11:53.900Z,24.11
2023-05-12T09:12:53.917Z,24.11
2023-05-12T09:13:54.009Z,24.09
2023-05-12T09:14:54.027Z,24.09
2023-05-12T09:15:54.169Z,24.08
2023-05-12T09:16:54.153Z,24.09
2023-05-12T09:17:54.201Z,24.05
2023-05-12T09:18:54.276Z,24.08
2023-05-12T09:19:54.239Z,24.09
2023-05-12T09:20:54.298Z,24.08
2023-05-12T09:21:54.325Z,24.05
2023-05-12T09:22:54.405Z,24.05
2023-05-12T09:23:54.721Z,24.04
2023-05-12T09:24:54.476Z,24.05
2023-05-12T09:25:54.554Z,24.05
2023-05-12T09:26:54.616Z,24.05
2023-05-12T09:27:54.626Z,24.07
2023-05-12T09:28:54.703Z,24.05
2023-05-12T09:29:59.709Z,24.05
2023-05-12T09:30:55.755Z,24.08
2023-05-12T09:31:54.794Z,24.05
2023-05-12T09:32:54.784Z,24.02
2023-05-12T09:33:54.701Z,24.05
2023-05-12T09:34:54.696Z,24.02
2023-05-12T09:35:54.730Z,24.02
2023-05-12T09:36:54.686Z,24.07
2023-05-12T09:37:54.673Z,24.05
2023-05-12T09:38:54.710Z,24.07
2023-05-12T09:39:54.802Z,24.05
2023-05-12T09:40:54.800Z,24.04
2023-05-12T09:41:54.898Z,24.04
2023-05-12T09:42:54.906Z,24.04
2023-05-12T09:43:54.958Z,24.05
2023-05-12T09:44:54.990Z,24.05
2023-05-12T09:45:55.076Z,24.01
2023-05-12T09:46:55.083Z,24.02
2023-05-12T09:47:55.178Z,24.05
2023-05-12T09:48:55.279Z,24.05
2023-05-12T09:49:55.246Z,24.02
2023-05-12T09:50:55.300Z,24.05
2023-05-12T09:51:55.324Z,24.12
2023-05-12T09:52:55.388Z,24.16
2023-05-12T09:53:55.403Z,24.19
2023-05-12T09:54:55.560Z,24.19
2023-05-12T09:55:55.547Z,24.23
2023-05-12T09:56:55.589Z,24.31
2023-05-12T09:57:55.657Z,24.36
2023-05-12T09:58:55.746Z,24.38
2023-05-12T09:59:55.803Z,24.39
2023-05-12T10:01:55.870Z,24.50
2023-05-12T10:02:55.801Z,24.52
2023-05-12T10:03:56.314Z,24.59
2023-05-12T10:04:55.798Z,24.62
2023-05-12T10:05:55.865Z,24.66
2023-05-12T10:06:55.827Z,24.67
2023-05-12T10:07:55.744Z,24.72
2023-05-12T10:08:56.234Z,24.76
2023-05-12T10:09:55.757Z,24.80
2023-05-12T10:10:55.749Z,24.80
2023-05-12T10:11:55.725Z,24.84
2023-05-12T10:12:55.747Z,24.89
2023-05-12T10:13:55.764Z,24.93
2023-05-12T10:14:55.718Z,24.94
2023-05-12T10:15:55.735Z,24.97
2023-05-12T10:16:55.769Z,25.00
2023-05-12T10:17:55.730Z,25.01
2023-05-12T10:18:55.775Z,25.04
2023-05-12T10:19:55.682Z,25.07
2023-05-12T10:20:55.694Z,25.10
2023-05-12T10:21:55.653Z,25.11
2023-05-12T10:22:55.634Z,25.14
2023-05-12T10:23:55.627Z,25.18
2023-05-12T10:24:55.665Z,25.21
2023-05-12T10:25:55.630Z,25.24
2023-05-12T10:26:56.166Z,25.27
2023-05-12T10:27:55.623Z,25.30
2023-05-12T10:28:55.740Z,25.31
2023-05-12T10:29:55.610Z,25.32
2023-05-12T10:30:55.642Z,25.35
2023-05-12T10:31:55.580Z,25.37
2023-05-12T10:32:55.719Z,25.40
2023-05-12T10:33:55.764Z,25.41
2023-05-12T10:34:55.582Z,25.44
2023-05-12T10:35:55.587Z,25.46
2023-05-12T10:36:55.622Z,25.46
2023-05-12T10:37:55.573Z,25.48
2023-05-12T10:38:55.736Z,25.51
2023-05-12T10:39:55.570Z,25.49
2023-05-12T10:40:55.571Z,25.57
2023-05-12T10:41:55.527Z,25.58
2023-05-12T10:42:55.543Z,25.57
2023-05-12T10:43:55.554Z,25.61
2023-05-12T10:44:55.542Z,25.61
2023-05-12T10:45:55.561Z,25.64
2023-05-12T10:46:55.508Z,25.64
2023-05-12T10:47:55.569Z,25.64
2023-05-12T10:48:55.802Z,25.62
2023-05-12T10:49:55.525Z,25.62
2023-05-12T10:50:55.584Z,25.61
2023-05-12T10:51:55.642Z,25.61
2023-05-12T10:52:55.837Z,25.61
2023-05-12T10:53:56.220Z,25.61
2023-05-12T10:54:55.890Z,25.60
2023-05-12T10:55:56.082Z,25.58
2023-05-12T10:56:56.075Z,25.58
2023-05-12T10:57:56.407Z,25.58
2023-05-12T10:58:56.328Z,25.60
2023-05-12T10:59:56.293Z,25.58
2023-05-12T11:00:56.990Z,25.60
2023-05-12T11:01:56.779Z,25.60
2023-05-12T11:03:00.633Z,25.58
2023-05-12T11:03:57.871Z,25.57
2023-05-12T11:04:56.470Z,25.57
2023-05-12T11:05:56.407Z,25.57
2023-05-12T11:06:56.693Z,25.55
2023-05-12T11:07:57.024Z,25.57
2023-05-12T11:08:57.101Z,25.57
2023-05-12T11:09:59.153Z,25.57
2023-05-12T11:10:56.379Z,25.58
2023-05-12T11:11:56.596Z,25.58
2023-05-12T11:12:56.221Z,25.57
2023-05-12T11:13:56.277Z,25.55
2023-05-12T11:14:56.214Z,25.55
2023-05-12T11:15:56.272Z,25.48
2023-05-12T11:16:56.217Z,25.46
2023-05-12T11:17:56.212Z,25.51
2023-05-12T11:18:56.250Z,25.51
2023-05-12T11:19:56.187Z,25.49
2023-05-12T11:20:56.182Z,25.51
2023-05-12T11:21:56.142Z,25.51
2023-05-12T11:22:56.171Z,25.48
2023-05-12T11:23:56.260Z,25.48
2023-05-12T11:24:56.248Z,25.49
2023-05-12T11:25:56.274Z,25.49
2023-05-12T11:26:56.143Z,25.46
2023-05-12T11:27:56.148Z,25.45
2023-05-12T11:28:56.142Z,25.44
2023-05-12T11:29:56.292Z,25.44
2023-05-12T11:30:56.174Z,25.41
2023-05-12T11:31:56.134Z,25.41
2023-05-12T11:32:56.146Z,25.42
2023-05-12T11:34:08.294Z,25.41
2023-05-12T11:34:57.118Z,25.37
2023-05-12T11:35:56.139Z,25.38
2023-05-12T11:36:56.063Z,25.35
2023-05-12T11:37:56.121Z,25.32
2023-05-12T11:38:56.124Z,25.34
2023-05-12T11:39:56.271Z,25.31
2023-05-12T11:40:56.150Z,25.37
2023-05-12T11:42:05.486Z,25.30
2023-05-12T11:42:57.080Z,25.37
2023-05-12T11:43:56.034Z,25.38
2023-05-12T11:44:56.052Z,25.44
2023-05-12T11:45:56.079Z,25.45
2023-05-12T11:46:56.014Z,25.45
2023-05-12T11:47:56.928Z,25.48
2023-05-12T11:48:56.243Z,25.51
2023-05-12T11:49:56.331Z,25.49
2023-05-12T11:50:56.398Z,25.54
2023-05-12T11:51:56.426Z,25.51
2023-05-12T11:52:56.514Z,25.55
2023-05-12T11:53:56.568Z,25.54
2023-05-12T11:54:56.776Z,25.54
2023-05-12T11:55:56.682Z,25.57
2023-05-12T11:56:56.755Z,25.60
2023-05-12T11:57:56.823Z,25.60
2023-05-12T11:58:56.833Z,25.61
2023-05-12T11:59:56.923Z,25.62
2023-05-12T12:00:56.960Z,25.61
2023-05-12T12:01:57.064Z,25.60
2023-05-12T12:02:57.126Z,25.62
2023-05-12T12:03:57.232Z,25.61
2023-05-12T12:04:57.190Z,25.62
2023-05-12T12:05:57.281Z,25.62
2023-05-12T12:06:57.561Z,25.65
2023-05-12T12:07:57.335Z,25.66
2023-05-12T12:08:57.401Z,25.68
2023-05-12T12:09:57.465Z,25.68
2023-05-12T12:10:57.519Z,25.69
2023-05-12T12:11:57.543Z,25.71
2023-05-12T12:12:57.619Z,25.69
2023-05-12T12:13:57.708Z,25.72
2023-05-12T12:14:57.686Z,25.71
2023-05-12T12:15:57.780Z,25.69
2023-05-12T12:16:57.799Z,25.72
2023-05-12T12:17:57.905Z,25.73
2023-05-12T12:18:58.170Z,25.72
2023-05-12T12:19:57.934Z,25.72
2023-05-12T12:20:57.984Z,25.75
2023-05-12T12:21:58.031Z,25.76
2023-05-12T12:22:58.056Z,25.75
2023-05-12T12:23:58.124Z,25.75
2023-05-12T12:24:58.331Z,25.76
2023-05-12T12:25:58.230Z,25.76
2023-05-12T12:26:58.275Z,25.76
2023-05-12T12:27:58.341Z,25.78
2023-05-12T12:28:58.338Z,25.78
2023-05-12T12:29:58.868Z,25.78
2023-05-12T12:30:58.466Z,25.81
2023-05-12T12:31:58.466Z,25.78
2023-05-12T12:32:58.586Z,25.72
2023-05-12T12:33:58.541Z,25.79
2023-05-12T12:34:58.622Z,25.76
2023-05-12T12:35:58.641Z,25.78
2023-05-12T12:36:58.705Z,25.78
2023-05-12T12:37:58.740Z,25.81
2023-05-12T12:38:58.785Z,25.82
2023-05-12T12:39:58.854Z,25.82
2023-05-12T12:40:58.875Z,25.82
2023-05-12T12:41:58.923Z,25.82
2023-05-12T12:42:59.018Z,25.82
2023-05-12T12:43:58.972Z,25.83
2023-05-12T12:44:59.032Z,25.83
2023-05-12T12:45:59.077Z,25.82
2023-05-12T12:46:59.147Z,25.83
2023-05-12T12:47:59.184Z,25.83
2023-05-12T12:48:59.215Z,25.81
2023-05-12T12:49:59.253Z,25.83
2023-05-12T12:50:59.316Z,25.85
2023-05-12T12:51:59.336Z,25.86
2023-05-12T12:52:59.346Z,25.83
2023-05-12T12:53:59.406Z,25.85
2023-05-12T12:54:59.463Z,25.85
2023-05-12T12:55:59.497Z,25.86